Terminal Aerodrome Forecast
Issued by NWS Corpus Christi, TX

Current Version | Previous Version | Text Only | Print | Product List | Glossary Off
Versions: 1 2 3 4 5 6 7 8 9 10 11 12 13

509
FTUS44 KCRP 271129
TAFVCT
TAF
KVCT 271129Z 2712/2812 15005KT P6SM FEW015
     FM271400 19008KT P6SM FEW025
     FM271900 15011G16KT P6SM SCT050
     FM280100 16008KT P6SM FEW025
     FM280900 VRB03KT P6SM SCT020=

USA.gov is the U.S. government's official web portal to all federal, state and local government web resources and services.